Fulda, MN

11:47 AM CDT on August 31, 2015 (GMT -0500)
Slayton | | Change Station
CLOSE
Current Station
Airport
Location: Slayton,
Elevation: 1624 ft
Nearby Weather Stations

Elev 1624 ft 43.99 °N, 95.78 °W | Updated 14 minutes ago

Partly Cloudy
Partly Cloudy
74 °F
Feels Like 74 °F
N
17
Wind Variable Wind from South
Gusts 24 mph

Today
High -- | Low -- °F
--% Chance of Precip.
Yesterday
High -- | Low -- °F
Precip. -- in
6:44 AM 8:00 PM
Waning Gibbous, 94% visible
Pressure 29.92 in
Visibility 7.0 miles
Clouds Clear
Dew Point 69 °F
Humidity 83%
Rainfall 0.00 in
Snow Depth Not available.
UV 7 out of 12
Pollen 10.80 out of 12
Air Quality Not available.
Flu Activity Not available.
METAR KDVP 311633Z AUTO 17015G21KT 7SM CLR 24/21 A2992 RMK AO2 T02360205
Pressure 29.92 in
Visibility 7.0 miles
Clouds Clear
Dew Point 69 °F
Humidity 83%
Rainfall 0.00 in
Snow Depth Not available.
UV 7 out of 12
Pollen 10.80 out of 12
Air Quality Not available.
Flu Activity Not available.
METAR KDVP 311633Z AUTO 17015G21KT 7SM CLR 24/21 A2992 RMK AO2 T02360205

10-Day Weather Forecast

×

Almanac

Astronomy

Aug. 31, 2015 Rise Set
Actual Time
Civil Twilight
Nautical Twilight
Astronomical Twilight
Moon
Length of Visible Light
Length of Day
Tomorrow will be .
, % of the Moon is Illuminated

Today's Extremes

State Highs State Lows

Community

WunderPhotos

Upload Photos

1,851,307 photos uploaded!

WunderBlogs® & News

Nearby

Air Quality

  Air Quality AQ Index Pollutant
Not available.

Snow Depth

Station Depth Elevation

Earthquake Activity

City Distance Mag. Time & Date
Minimum magnitude displayed is 2.5.

Coastal Water Temperatures

Place Temperature

Stations

Nearby Weather Stations

Station Location Temp. Windchill Dew Point Humidity Wind Precip. Elev Updated Type